world map with LMP marked

LMP - Airport

This information may not be accurate or current and is not valid for navigation or flight planning. No warranty of fitness for any purpose is made or implied.

flag of Sicilyflag of Italy

Donate via PayPal

Additional information is available on the NEW Great Circle Mapper

Location
City:  Lampedusa, Lampedusa Island, Sicily, Italy
ICAO / IATA:LICD / LMP

Details
Type:Airport (Aerodrome, Airfield)
Latitude:35°29'52"N (35.497914)
Longitude:12°37'05"E (12.618083)
Datum:WGS 1984
Elevation:70 ft (21 m)
Runways:1
Longest:5906 × 148 ft (1800 × 45 m)

Time
Timezone:UTC+1 (DST+4)
Local Time:

Weather
METAR:LICD  041350Z 35005KT 320V020 9999 FEW015CB SCT040 11/08 Q1008
TAF:LICD  041100Z 0412/0512 35016KT 9999 SCT030 TEMPO 0412/0508 4000 TSRA BECMG 0501/0503 01020G30KT

Related Locations
Nearby:
Farthest:CHT: 11685 mi / 18806 km
Waitangi [Tuuta], CIT, NZ

Find:

   beyond  
but within

Other Information
Maps:
Sources:

  


 


Great Circle Mapper   Great Circle Mapper
Great Circle Mapper FAQ   Great Circle Mapper FAQ
  Karl's Home Page
KLSē   KLSē Home
   GC on Facebook
Airlines of the World   Airlines of the World
Donate via PayPal


Copyright © 2004-2020, Karl L. Swartz. All rights reserved.
All trademarks mentioned herein belong to their respective owners.

Please see credits for attribution and copyright information.

Karl Swartz <karl@kls2.com>
  Powered by FreeBSD
Valid HTML 4.01!
Labeled with ICRA
hCard Microformat
Geo Microformat